Time;durP1;ratioP1;P1;durP2;ratioP2;P2;SDS_P1;SDS_P2;PMS_P1;PMS_P2;Temp;Humidity;BMP_temperature;BMP_pressure;BME280_temperature;BME280_humidity;BME280_pressure;Samples;Min_cycle;Max_cycle;Signal;HPM_P1;HPM_P2
2022/08/11 00:01:27;;;;;;;1999.90;999.90;;;14.50;99.90;;;;;;4918626;29;20418;-84
2022/08/11 00:04:02;;;;;;;1999.90;999.90;;;14.50;99.90;;;;;;4916577;29;20399;-84
2022/08/11 00:06:33;;;;;;;1999.90;999.90;;;14.50;99.90;;;;;;4933627;28;20418;-84
2022/08/11 00:09:04;;;;;;;1999.90;999.90;;;14.40;99.90;;;;;;4927802;29;20414;-84
2022/08/11 00:11:43;;;;;;;1999.90;999.90;;;14.40;99.90;;;;;;4938904;28;20510;-84
2022/08/11 00:14:29;;;;;;;1999.90;999.90;;;14.40;99.90;;;;;;4923821;29;20406;-84
2022/08/11 00:17:14;;;;;;;1999.90;999.90;;;14.40;99.90;;;;;;4932069;29;20497;-85
2022/08/11 00:19:48;;;;;;;1999.90;999.90;;;14.40;99.90;;;;;;4922280;29;20838;-84
2022/08/11 00:22:40;;;;;;;1999.90;999.90;;;14.40;99.90;;;;;;4933624;28;20422;-84
2022/08/11 00:25:14;;;;;;;1999.90;999.90;;;14.30;99.90;;;;;;4938617;28;20423;-84
2022/08/11 00:27:44;;;;;;;1999.90;999.90;;;14.30;99.90;;;;;;4924819;29;20423;-84
2022/08/11 00:30:13;;;;;;;1999.90;999.90;;;14.30;99.90;;;;;;4923239;29;20754;-85
2022/08/11 00:32:43;;;;;;;1999.90;999.90;;;14.30;99.90;;;;;;4923578;29;20412;-85
2022/08/11 00:35:14;;;;;;;1999.90;999.90;;;14.20;99.90;;;;;;4924831;29;20406;-84
2022/08/11 00:38:02;;;;;;;1999.90;999.90;;;14.30;99.90;;;;;;4924778;29;20414;-84
2022/08/11 00:40:51;;;;;;;1999.90;999.90;;;14.20;99.90;;;;;;4920923;29;20424;-83
2022/08/11 00:43:42;;;;;;;1999.90;999.90;;;14.20;99.90;;;;;;4942839;29;20449;-84
2022/08/11 00:46:31;;;;;;;1999.90;999.90;;;14.10;99.90;;;;;;4941481;28;20441;-84
2022/08/11 00:49:28;;;;;;;1999.90;999.90;;;14.10;99.90;;;;;;4932575;28;20432;-85
2022/08/11 00:52:15;;;;;;;1999.90;999.90;;;14.10;99.90;;;;;;4937284;28;20427;-85
2022/08/11 00:55:01;;;;;;;1999.90;999.90;;;14.10;99.90;;;;;;4941323;28;20812;-84
2022/08/11 00:57:46;;;;;;;1999.90;999.90;;;14.00;99.90;;;;;;4936065;28;20558;-84
2022/08/11 01:00:16;;;;;;;1999.90;999.90;;;14.00;99.90;;;;;;4938647;29;20889;-84
2022/08/11 01:03:02;;;;;;;1999.90;999.90;;;14.00;99.90;;;;;;4938226;28;20473;-84
2022/08/11 01:05:55;;;;;;;1999.90;999.90;;;14.00;99.90;;;;;;4933010;29;20705;-84
2022/08/11 01:08:41;;;;;;;1999.90;999.90;;;13.90;99.90;;;;;;4915876;29;20447;-84
2022/08/11 01:11:44;;;;;;;1999.90;999.90;;;13.90;99.90;;;;;;4939624;29;20412;-84
2022/08/11 01:14:53;;;;;;;1999.90;999.90;;;13.90;99.90;;;;;;4937594;28;20902;-84
2022/08/11 01:17:29;;;;;;;1999.90;999.90;;;13.90;99.90;;;;;;4928590;29;20774;-84
2022/08/11 01:20:31;;;;;;;1999.90;999.90;;;13.90;99.90;;;;;;4936756;28;20421;-85
2022/08/11 01:23:58;;;;;;;1999.90;999.90;;;13.80;99.90;;;;;;4902463;29;20907;-84
2022/08/11 01:27:03;;;;;;;1999.90;999.90;;;13.80;99.90;;;;;;4901110;29;20925;-84
2022/08/11 01:29:57;;;;;;;1999.90;999.90;;;13.80;99.90;;;;;;4900270;29;20451;-84
2022/08/11 01:33:09;;;;;;;1999.90;999.90;;;13.80;99.90;;;;;;4883569;29;20502;-84
2022/08/11 01:35:40;;;;;;;1999.90;999.90;;;13.70;99.90;;;;;;4891533;29;20409;-84
2022/08/11 01:38:45;;;;;;;1999.90;999.90;;;13.70;99.90;;;;;;4884989;29;20939;-85
2022/08/11 01:41:24;;;;;;;1999.90;999.90;;;13.70;99.90;;;;;;4884132;29;20420;-84
2022/08/11 01:50:47;;;;;;;1999.90;999.90;;;13.70;99.90;;;;;;4886108;29;20474;-84
2022/08/11 01:53:51;;;;;;;1999.90;999.90;;;13.60;99.90;;;;;;4894351;29;20445;-84
2022/08/11 01:56:59;;;;;;;1999.90;999.90;;;13.60;99.90;;;;;;4876517;29;21158;-84
2022/08/11 01:59:28;;;;;;;1999.90;999.90;;;13.50;99.90;;;;;;4909919;29;20452;-84
2022/08/11 02:02:17;;;;;;;1999.90;999.90;;;13.50;99.90;;;;;;4891201;29;20932;-84
2022/08/11 02:05:13;;;;;;;1999.90;999.90;;;13.50;99.90;;;;;;4884502;29;20890;-84
2022/08/11 02:08:18;;;;;;;1999.90;999.90;;;13.50;99.90;;;;;;4895380;29;20447;-84
2022/08/11 02:11:29;;;;;;;1999.90;999.90;;;13.40;99.90;;;;;;4886984;29;20407;-84
2022/08/11 02:14:30;;;;;;;1999.90;999.90;;;13.40;99.90;;;;;;4899736;29;20406;-84
2022/08/11 02:17:21;;;;;;;1999.90;999.90;;;13.40;99.90;;;;;;4887400;29;20417;-84
2022/08/11 02:26:09;;;;;;;1999.90;999.90;;;13.30;99.90;;;;;;4935818;28;20426;-84
2022/08/11 02:29:00;;;;;;;1999.90;999.90;;;13.30;99.90;;;;;;4945302;28;20409;-83
2022/08/11 02:34:55;;;;;;;1999.90;999.90;;;13.30;99.90;;;;;;4940452;28;20411;-83
2022/08/11 02:37:53;;;;;;;1999.90;999.90;;;13.20;99.90;;;;;;4933044;29;20416;-84
2022/08/11 02:40:21;;;;;;;1999.90;999.90;;;13.20;99.90;;;;;;4936666;28;20906;-84
2022/08/11 02:42:56;;;;;;;1999.90;999.90;;;13.20;99.90;;;;;;4928324;29;20399;-84
2022/08/11 02:45:53;;;;;;;1999.90;999.90;;;13.20;99.90;;;;;;4939032;28;20505;-84
2022/08/11 02:51:56;;;;;;;1999.90;999.90;;;13.20;99.90;;;;;;4928372;29;20586;-84
2022/08/11 02:54:38;;;;;;;1999.90;999.90;;;13.20;99.90;;;;;;4935802;29;20659;-84
2022/08/11 02:57:09;;;;;;;1999.90;999.90;;;13.20;99.90;;;;;;4942939;29;20475;-84
2022/08/11 02:59:50;;;;;;;1999.90;999.90;;;13.10;99.90;;;;;;4940241;29;20792;-84
2022/08/11 03:02:30;;;;;;;1999.90;999.90;;;13.20;99.90;;;;;;4935357;29;20415;-84
2022/08/11 03:05:07;;;;;;;1999.90;999.90;;;13.20;99.90;;;;;;4940985;28;20706;-84
2022/08/11 03:07:53;;;;;;;1999.90;999.90;;;13.10;99.90;;;;;;4936909;29;20410;-84
2022/08/11 03:10:42;;;;;;;1999.90;999.90;;;13.20;99.90;;;;;;4942685;28;20982;-84
2022/08/11 03:16:45;;;;;;;1999.90;999.90;;;13.10;99.90;;;;;;4921681;29;20418;-84
2022/08/11 03:19:29;;;;;;;1999.90;999.90;;;13.10;99.90;;;;;;4923410;29;20957;-84
2022/08/11 03:22:22;;;;;;;1999.90;999.90;;;13.10;99.90;;;;;;4933007;29;20422;-84
2022/08/11 03:24:57;;;;;;;1999.90;999.90;;;13.10;99.90;;;;;;4923973;29;20494;-84
2022/08/11 03:28:12;;;;;;;1999.90;999.90;;;13.10;99.90;;;;;;4928083;29;20421;-84
2022/08/11 03:30:56;;;;;;;1999.90;999.90;;;13.10;99.90;;;;;;4934736;29;20494;-83
2022/08/11 03:37:04;;;;;;;1999.90;999.90;;;13.10;99.90;;;;;;4917124;29;20403;-84
2022/08/11 03:39:58;;;;;;;1999.90;999.90;;;13.10;99.90;;;;;;4939859;28;20964;-83
2022/08/11 03:42:43;;;;;;;1999.90;999.90;;;13.20;99.90;;;;;;4926439;29;20860;-83
2022/08/11 03:45:48;;;;;;;1999.90;999.90;;;13.10;99.90;;;;;;4932558;29;20917;-84
2022/08/11 03:48:27;;;;;;;1999.90;999.90;;;13.20;99.90;;;;;;4937794;28;20410;-84
2022/08/11 03:51:22;;;;;;;1999.90;999.90;;;13.20;99.90;;;;;;4929422;29;20413;-83
2022/08/11 03:54:30;;;;;;;1999.90;999.90;;;13.20;99.90;;;;;;4944487;28;20440;-84
2022/08/11 03:57:22;;;;;;;1999.90;999.90;;;13.20;99.90;;;;;;4925473;29;20398;-84
2022/08/11 04:00:28;;;;;;;1999.90;999.90;;;13.10;99.90;;;;;;4939572;29;20396;-84
2022/08/11 04:03:10;;;;;;;1999.90;999.90;;;13.20;99.90;;;;;;4923652;29;20413;-84
2022/08/11 04:05:44;;;;;;;1999.90;999.90;;;13.20;99.90;;;;;;4924842;29;20403;-84
2022/08/11 04:08:29;;;;;;;1999.90;999.90;;;13.10;99.90;;;;;;4947671;28;20459;-84
2022/08/11 04:11:19;;;;;;;1999.90;999.90;;;13.10;99.90;;;;;;4939264;29;20402;-84
2022/08/11 04:17:03;;;;;;;1999.90;999.90;;;13.10;99.90;;;;;;4930729;29;20424;-83
2022/08/11 04:19:52;;;;;;;1999.90;999.90;;;13.20;99.90;;;;;;4925677;29;20493;-83
2022/08/11 04:22:20;;;;;;;1999.90;999.90;;;13.20;99.90;;;;;;4918609;29;20848;-84
2022/08/11 04:24:58;;;;;;;1999.90;999.90;;;13.20;99.90;;;;;;4941550;28;20793;-84
2022/08/11 04:28:01;;;;;;;1999.90;999.90;;;13.30;99.90;;;;;;4941701;28;20419;-83
2022/08/11 04:31:05;;;;;;;1999.90;999.90;;;13.20;99.90;;;;;;4892011;29;20497;-85
2022/08/11 04:34:05;;;;;;;1999.90;999.90;;;13.30;99.90;;;;;;4939121;28;20401;-83
2022/08/11 04:40:11;;;;;;;1999.90;999.90;;;13.40;99.90;;;;;;4929657;29;20400;-84
2022/08/11 04:46:21;;;;;;;1999.90;999.90;;;13.40;99.90;;;;;;4925031;29;20412;-83
2022/08/11 05:02:07;;;;;;;1999.90;999.90;;;13.50;99.90;;;;;;4926470;29;20696;-84
2022/08/11 05:05:31;;;;;;;1999.90;999.90;;;13.50;99.90;;;;;;4936624;28;20443;-84
2022/08/11 05:08:25;;;;;;;1999.90;999.90;;;13.60;99.90;;;;;;4909867;29;20448;-83
2022/08/11 05:11:14;;;;;;;1999.90;999.90;;;13.60;99.90;;;;;;4924687;29;20509;-82
2022/08/11 05:34:50;;;;;;;1999.90;999.90;;;14.20;99.90;;;;;;4940436;28;20418;-80
2022/08/11 05:37:30;;;;;;;1999.90;999.90;;;14.20;99.90;;;;;;4925934;29;20919;-81
2022/08/11 05:57:35;;;;;;;1831.10;999.90;;;15.20;99.90;;;;;;4916516;29;20409;-81
2022/08/11 06:00:18;;;;;;;1935.47;999.90;;;15.40;99.90;;;;;;4937844;29;20487;-81
2022/08/11 06:03:00;;;;;;;1929.35;999.90;;;15.50;99.90;;;;;;4919321;29;20513;-80
2022/08/11 06:05:40;;;;;;;1999.90;999.90;;;15.60;99.90;;;;;;4936389;29;20408;-81
2022/08/11 06:08:12;;;;;;;1999.90;999.90;;;15.70;99.90;;;;;;4918426;29;20474;-81
2022/08/11 06:10:45;;;;;;;1878.88;999.90;;;15.70;99.90;;;;;;4928846;29;20408;-81
2022/08/11 06:13:17;;;;;;;1926.60;999.90;;;15.70;99.90;;;;;;4929329;29;20416;-81
2022/08/11 06:15:51;;;;;;;1979.40;999.90;;;15.80;99.90;;;;;;4935366;28;20417;-82
2022/08/11 06:18:19;;;;;;;1999.90;999.90;;;15.90;99.90;;;;;;4943670;28;20409;-81
2022/08/11 06:20:53;;;;;;;1983.10;999.90;;;16.00;99.90;;;;;;4941257;29;20403;-81
2022/08/11 06:23:24;;;;;;;1999.90;999.90;;;16.00;99.90;;;;;;4941746;28;20501;-82
2022/08/11 06:25:52;;;;;;;1729.30;999.90;;;15.90;99.90;;;;;;4927098;29;20420;-81
2022/08/11 06:28:34;;;;;;;1999.90;999.90;;;16.10;99.90;;;;;;4947068;28;20440;-81
2022/08/11 06:31:22;;;;;;;1844.57;999.90;;;16.10;99.90;;;;;;4920713;29;20407;-81
2022/08/11 06:34:00;;;;;;;1999.90;999.90;;;16.40;99.90;;;;;;4940450;29;20901;-81
2022/08/11 06:36:39;;;;;;;1884.10;999.90;;;16.40;99.90;;;;;;4926805;29;20402;-81
2022/08/11 06:39:15;;;;;;;1810.72;999.90;;;16.40;99.90;;;;;;4907812;29;20486;-82
2022/08/11 06:41:52;;;;;;;1806.43;999.90;;;16.50;99.90;;;;;;4941402;28;22046;-82
2022/08/11 06:45:07;;;;;;;1735.57;999.90;;;16.70;99.90;;;;;;4957549;28;20418;-80
2022/08/11 06:47:44;;;;;;;1690.30;999.90;;;16.60;99.90;;;;;;4913538;29;20770;-81
2022/08/11 06:53:09;;;;;;;1810.40;999.90;;;16.90;99.90;;;;;;4921752;29;20404;-82
2022/08/11 07:01:43;;;;;;;1697.82;999.90;;;16.90;99.90;;;;;;4937688;28;20419;-82
2022/08/11 07:04:30;;;;;;;1802.15;999.90;;;17.10;99.90;;;;;;4940250;29;20391;-82
2022/08/11 07:16:48;;;;;;;1999.90;999.90;;;17.50;99.90;;;;;;4937152;29;20771;-82
2022/08/11 07:31:06;;;;;;;1568.38;999.90;;;17.70;99.90;;;;;;4921880;29;20421;-85
2022/08/11 07:33:49;;;;;;;1578.32;999.90;;;17.80;99.90;;;;;;4930879;29;20491;-86
2022/08/11 07:36:34;;;;;;;1655.07;999.90;;;17.90;99.90;;;;;;4916752;29;20426;-86
2022/08/11 07:39:02;;;;;;;1620.78;999.90;;;17.90;99.90;;;;;;4932576;29;20890;-87
2022/08/11 07:41:33;;;;;;;1650.65;999.90;;;17.90;99.90;;;;;;4930007;29;20429;-86
2022/08/11 07:44:07;;;;;;;1791.47;999.90;;;17.90;99.90;;;;;;4933855;29;20897;-86
2022/08/11 07:52:29;;;;;;;1550.03;999.90;;;18.40;99.90;;;;;;4924530;29;20410;-86
2022/08/11 07:55:03;;;;;;;1788.32;999.90;;;18.30;99.90;;;;;;4933096;29;20414;-87
2022/08/11 08:17:51;;;;;;;1667.43;999.90;;;18.90;99.90;;;;;;4924177;29;20400;-87
2022/08/11 08:20:45;;;;;;;1700.78;999.90;;;18.80;99.90;;;;;;4939119;29;20400;-86
2022/08/11 08:23:14;;;;;;;1734.38;999.90;;;18.80;99.90;;;;;;4933882;29;20410;-86
2022/08/11 08:25:44;;;;;;;1552.10;999.90;;;19.00;99.90;;;;;;4925265;29;20418;-87
2022/08/11 08:28:15;;;;;;;1703.80;999.90;;;19.30;99.90;;;;;;4932688;29;20496;-86
2022/08/11 08:30:48;;;;;;;1496.60;999.90;;;19.30;99.90;;;;;;4930619;29;20408;-87
2022/08/11 08:33:29;;;;;;;1332.88;999.90;;;19.30;99.90;;;;;;4941888;28;20410;-87
2022/08/11 08:36:13;;;;;;;1408.97;999.90;;;19.50;99.90;;;;;;4932123;29;20970;-87
2022/08/11 08:38:49;;;;;;;1437.70;999.90;;;19.40;99.90;;;;;;4917661;29;20419;-87
2022/08/11 08:41:21;;;;;;;1253.30;999.90;;;19.50;99.90;;;;;;4925321;29;20510;-86
2022/08/11 08:43:52;;;;;;;1281.03;999.90;;;19.50;99.90;;;;;;4928430;29;20409;-86
2022/08/11 08:46:42;;;;;;;1693.13;999.90;;;19.40;99.90;;;;;;4940864;28;20485;-87
2022/08/11 08:49:15;;;;;;;1336.55;999.90;;;19.40;99.90;;;;;;4926815;29;20414;-87
2022/08/11 08:51:48;;;;;;;1600.80;999.90;;;19.50;99.90;;;;;;4945229;29;20407;-87
2022/08/11 08:54:38;;;;;;;1275.43;999.90;;;19.50;99.90;;;;;;4924324;29;20399;-87
2022/08/11 08:57:08;;;;;;;1331.50;999.90;;;19.70;99.90;;;;;;4940617;29;20395;-86
2022/08/11 08:59:39;;;;;;;1251.25;999.90;;;19.60;99.90;;;;;;4937069;28;20439;-88
2022/08/11 09:02:18;;;;;;;1421.40;999.90;;;19.80;99.90;;;;;;4920394;29;20484;-85
2022/08/11 09:05:03;;;;;;;1431.28;999.90;;;19.80;99.90;;;;;;4934659;29;20398;-86
2022/08/11 09:07:32;;;;;;;1234.68;999.90;;;19.90;99.90;;;;;;4933946;29;20934;-87
2022/08/11 09:10:09;;;;;;;1297.22;999.90;;;20.00;99.90;;;;;;4914689;29;20483;-87
2022/08/11 09:12:41;;;;;;;1247.57;999.90;;;20.00;99.90;;;;;;4931428;29;20489;-88
2022/08/11 09:15:11;;;;;;;1483.32;999.90;;;20.00;99.90;;;;;;4933300;29;20794;-87
2022/08/11 09:17:45;;;;;;;1240.60;999.90;;;20.10;99.90;;;;;;4949056;29;20394;-87
2022/08/11 09:20:24;;;;;;;1438.43;999.90;;;20.20;99.90;;;;;;4934379;29;20420;-87
2022/08/11 09:28:58;;;;;;;1543.50;999.90;;;20.30;99.90;;;;;;4950758;28;20406;-87
2022/08/11 09:31:29;;;;;;;1310.72;999.90;;;20.50;99.90;;;;;;4933542;28;20929;-87
2022/08/11 09:34:02;;;;;;;1408.20;999.90;;;20.40;99.90;;;;;;4915283;29;20635;-87
2022/08/11 09:42:05;;;;;;;1368.95;999.90;;;21.00;99.90;;;;;;4915385;29;20410;-87
2022/08/11 09:44:47;;;;;;;1327.75;999.90;;;21.00;99.90;;;;;;4929585;29;20406;-88
2022/08/11 09:47:25;;;;;;;1615.17;999.90;;;20.70;99.90;;;;;;4923684;29;20483;-87
2022/08/11 09:49:58;;;;;;;1329.20;999.90;;;20.50;99.90;;;;;;4929742;29;20408;-87
2022/08/11 09:52:31;;;;;;;1241.10;999.90;;;20.50;99.90;;;;;;4929855;29;20778;-86
2022/08/11 09:54:59;;;;;;;1412.10;999.90;;;20.90;99.90;;;;;;4929943;29;20415;-87
2022/08/11 10:00:14;;;;;;;1225.85;999.90;;;21.10;99.90;;;;;;4920480;29;20498;-87
2022/08/11 10:02:47;;;;;;;1344.65;999.90;;;21.00;99.90;;;;;;4916781;29;20412;-87
2022/08/11 10:08:06;;;;;;;1420.35;999.90;;;21.30;99.90;;;;;;4923414;29;20411;-88
2022/08/11 10:10:36;;;;;;;1253.82;999.90;;;21.30;99.90;;;;;;4935617;29;20421;-88
2022/08/11 10:13:10;;;;;;;1268.15;999.90;;;21.30;99.90;;;;;;4921394;29;20836;-88
2022/08/11 10:16:01;;;;;;;1380.90;999.90;;;21.30;99.90;;;;;;4942176;29;20411;-88
2022/08/11 10:18:52;;;;;;;1370.90;999.90;;;21.50;99.90;;;;;;4951845;28;20403;-87
2022/08/11 10:21:29;;;;;;;1198.90;999.90;;;21.50;99.90;;;;;;4952978;28;20408;-88
2022/08/11 10:26:54;;;;;;;1240.10;999.90;;;21.50;99.90;;;;;;4953081;28;20400;-86
2022/08/11 10:35:28;;;;;;;1256.22;999.90;;;21.70;99.90;;;;;;4953002;28;20488;-86
2022/08/11 10:37:58;;;;;;;1143.60;999.90;;;21.60;99.90;;;;;;4951774;28;20403;-87
2022/08/11 10:43:01;;;;;;;1232.90;999.90;;;21.70;99.90;;;;;;4951972;28;20428;-87
2022/08/11 10:43:37;;;;;;;1212.55;999.90;;;21.70;99.90;;;;;;4952872;28;20428;-87
2022/08/11 10:49:13;;;;;;;1214.30;999.90;;;21.90;99.90;;;;;;4943094;28;20826;-87
2022/08/11 11:00:05;;;;;;;1242.25;999.90;;;22.30;99.90;;;;;;4954906;29;20443;-87
2022/08/11 11:02:34;;;;;;;1170.85;999.90;;;22.40;99.90;;;;;;4954778;28;20786;-87
2022/08/11 11:05:23;;;;;;;1195.20;999.90;;;22.40;99.90;;;;;;4971028;28;20469;-86
2022/08/11 11:08:02;;;;;;;1214.13;999.90;;;22.40;99.90;;;;;;4954949;28;20766;-87
2022/08/11 11:10:31;;;;;;;1171.47;999.90;;;22.60;99.90;;;;;;4955689;28;20411;-87
2022/08/11 11:18:35;;;;;;;1176.60;999.90;;;22.50;99.90;;;;;;4955819;28;20388;-87
2022/08/11 11:21:16;;;;;;;1152.10;999.90;;;22.50;99.90;;;;;;4954234;28;20399;-86
2022/08/11 11:24:03;;;;;;;1146.18;999.90;;;22.70;99.90;;;;;;4954535;29;20754;-86
2022/08/11 11:27:08;;;;;;;1128.43;999.90;;;22.70;99.90;;;;;;4954266;28;20400;-86
2022/08/11 11:29:47;;;;;;;1153.05;999.90;;;22.70;99.90;;;;;;4954372;29;20564;-84
2022/08/11 11:33:01;;;;;;;1185.82;999.90;;;22.50;99.90;;;;;;4955369;28;20878;-85
2022/08/11 11:35:37;;;;;;;1125.28;999.90;;;22.50;99.90;;;;;;4954077;28;20392;-87
2022/08/11 11:38:09;;;;;;;1226.55;999.90;;;22.70;99.90;;;;;;4938477;29;20396;-87
2022/08/11 11:40:41;;;;;;;1175.57;999.90;;;22.70;99.90;;;;;;4955324;28;20486;-87
2022/08/11 11:43:09;;;;;;;1172.50;999.90;;;23.00;99.90;;;;;;4955279;29;20407;-87
2022/08/11 11:45:39;;;;;;;1120.30;999.90;;;23.00;99.90;;;;;;4955147;28;20588;-87
2022/08/11 11:48:07;;;;;;;1187.88;999.90;;;23.00;99.90;;;;;;4954188;29;20400;-87
2022/08/11 11:50:36;;;;;;;1179.07;999.90;;;23.20;99.90;;;;;;4937887;29;20408;-87
2022/08/11 11:53:08;;;;;;;1155.10;999.90;;;23.30;99.90;;;;;;4927635;28;20409;-87
2022/08/11 11:55:36;;;;;;;1173.88;999.90;;;23.40;99.90;;;;;;4915997;29;20772;-87
2022/08/11 12:03:39;;;;;;;1146.87;999.90;;;23.50;99.90;;;;;;4952580;28;20408;-87
2022/08/11 12:06:12;;;;;;;1170.22;999.90;;;23.50;99.90;;;;;;4943888;28;20408;-87
2022/08/11 12:08:41;;;;;;;1201.22;999.90;;;23.60;99.90;;;;;;4946163;28;20622;-88
2022/08/11 12:14:00;;;;;;;1211.32;999.90;;;23.60;99.90;;;;;;4948378;28;20410;-88
2022/08/11 12:16:29;;;;;;;1170.90;999.90;;;23.60;99.90;;;;;;4957588;28;20403;-87
2022/08/11 12:19:29;;;;;;;1185.50;999.90;;;23.80;99.90;;;;;;4949333;28;20424;-86
2022/08/11 12:27:35;;;;;;;1168.22;999.90;;;24.00;99.90;;;;;;4937946;28;20887;-88
2022/08/11 12:30:09;;;;;;;1184.32;999.90;;;24.00;99.90;;;;;;4949760;28;20518;-87
2022/08/11 12:32:39;;;;;;;1153.03;999.90;;;24.00;99.90;;;;;;4935098;29;20409;-87
2022/08/11 12:35:08;;;;;;;1177.72;999.90;;;23.90;99.90;;;;;;4933906;29;20845;-87
2022/08/11 12:37:52;;;;;;;1196.90;999.90;;;23.90;99.90;;;;;;4933969;29;20480;-88
2022/08/11 12:46:28;;;;;;;1127.05;999.90;;;24.20;99.90;;;;;;4916360;29;20400;-88
2022/08/11 12:52:00;;;;;;;1148.88;999.90;;;24.30;99.90;;;;;;4927735;29;20447;-86
2022/08/11 12:54:55;;;;;;;1098.43;996.05;;;24.40;99.90;;;;;;4945090;29;20389;-87
2022/08/11 13:06:02;;;;;;;1206.55;999.90;;;23.60;99.90;;;;;;4949346;28;20400;-87
2022/08/11 13:08:34;;;;;;;1158.07;999.90;;;23.90;99.90;;;;;;4942199;29;20411;-86
2022/08/11 13:13:51;;;;;;;1166.30;999.90;;;24.20;99.90;;;;;;4953605;28;20392;-87
2022/08/11 13:17:19;;;;;;;1141.70;999.90;;;24.40;99.90;;;;;;4952075;28;20965;-88
2022/08/11 13:19:23;;;;;;;1108.25;999.90;;;24.40;99.90;;;;;;4952324;28;20408;-86
2022/08/11 13:21:52;;;;;;;1100.97;998.55;;;24.60;99.90;;;;;;4945012;28;20919;-86
2022/08/11 13:24:21;;;;;;;1136.50;999.90;;;24.60;99.90;;;;;;4917401;29;20406;-87
2022/08/11 13:26:50;;;;;;;1172.70;999.90;;;24.60;99.90;;;;;;4948496;29;20909;-86
2022/08/11 13:29:24;;;;;;;1165.85;999.90;;;24.50;99.90;;;;;;4952127;28;20925;-87
2022/08/11 13:31:55;;;;;;;1158.07;999.90;;;24.50;99.90;;;;;;4942461;29;20423;-87
2022/08/11 13:34:25;;;;;;;1192.13;999.90;;;24.50;99.90;;;;;;4930983;28;20411;-86
2022/08/11 13:36:56;;;;;;;1099.88;999.90;;;24.50;99.90;;;;;;4938443;29;20545;-86
2022/08/11 13:39:27;;;;;;;1164.43;999.90;;;24.70;99.90;;;;;;4931662;29;20471;-86
2022/08/11 13:41:58;;;;;;;1128.30;999.90;;;24.90;99.90;;;;;;4935145;28;20815;-87
2022/08/11 13:44:29;;;;;;;1125.85;999.90;;;24.90;99.90;;;;;;4932192;29;20903;-86
2022/08/11 13:47:01;;;;;;;1182.40;999.90;;;25.10;99.90;;;;;;4938207;29;20443;-86
2022/08/11 13:49:36;;;;;;;1198.15;999.90;;;25.20;99.90;;;;;;4936057;29;20444;-85
2022/08/11 13:52:14;;;;;;;1234.63;999.90;;;25.30;99.90;;;;;;4945861;29;20929;-86
2022/08/11 13:54:43;;;;;;;1235.22;999.90;;;25.30;99.90;;;;;;4923289;29;20420;-86
2022/08/11 13:57:13;;;;;;;1233.40;999.90;;;25.20;99.90;;;;;;4927410;29;20945;-86
2022/08/11 14:00:09;;;;;;;1165.43;999.90;;;24.80;99.90;;;;;;4936404;29;20455;-87
2022/08/11 14:02:55;;;;;;;1286.57;999.90;;;24.70;99.90;;;;;;4930866;29;20407;-86
2022/08/11 14:05:36;;;;;;;1235.13;999.90;;;24.90;99.90;;;;;;4937160;29;20904;-86
2022/08/11 14:08:11;;;;;;;1215.95;999.90;;;25.20;99.90;;;;;;4929604;29;20459;-85
2022/08/11 14:14:12;;;;;;;933.08;868.25;;;25.50;99.90;;;;;;4946486;29;20405;-90
2022/08/11 14:16:43;;;;;;;909.00;847.65;;;25.40;99.90;;;;;;4943856;29;20403;-89
2022/08/11 14:19:14;;;;;;;1017.53;942.87;;;25.50;99.90;;;;;;4942497;28;20411;-90
2022/08/11 14:24:40;;;;;;;1033.97;957.77;;;25.80;99.90;;;;;;4932464;29;20773;-89
2022/08/11 14:27:10;;;;;;;1058.63;974.03;;;25.80;99.90;;;;;;4934248;29;20697;-87
2022/08/11 14:29:58;;;;;;;947.70;877.00;;;25.80;99.90;;;;;;4937501;29;20433;-89
2022/08/11 14:32:26;;;;;;;1033.15;957.08;;;25.90;99.90;;;;;;4949517;28;20420;-89
2022/08/11 14:34:54;;;;;;;991.92;915.45;;;25.90;99.90;;;;;;4937413;29;20627;-89
2022/08/11 14:37:24;;;;;;;1027.13;949.30;;;26.00;99.90;;;;;;4933175;29;20957;-87
2022/08/11 14:39:55;;;;;;;965.05;893.47;;;26.00;99.90;;;;;;4922598;29;20470;-89
2022/08/11 14:48:23;;;;;;;1022.87;943.53;;;25.70;99.90;;;;;;4930655;29;20398;-88
2022/08/11 14:50:51;;;;;;;1124.32;999.90;;;25.80;99.90;;;;;;4943582;28;20406;-89
2022/08/11 14:53:22;;;;;;;1146.60;999.90;;;25.70;99.90;;;;;;4926384;29;20913;-89
2022/08/11 14:58:39;;;;;;;987.95;916.55;;;25.70;99.90;;;;;;4932634;29;20427;-88
2022/08/11 15:03:05;;;;;;;1060.77;979.60;;;25.70;99.90;;;;;;4944191;28;20851;-89
2022/08/11 15:03:56;;;;;;;999.58;927.33;;;25.60;99.90;;;;;;4943590;29;20443;-91
2022/08/11 15:06:45;;;;;;;1022.33;943.75;;;25.70;99.90;;;;;;4940468;29;20394;-89
2022/08/11 15:09:13;;;;;;;951.70;882.38;;;25.70;99.90;;;;;;4947712;28;20419;-89
2022/08/11 15:17:23;;;;;;;989.38;920.38;;;25.60;99.90;;;;;;4940371;28;20911;-89
2022/08/11 15:25:57;;;;;;;1358.90;999.90;;;24.90;99.90;;;;;;4941090;29;20437;-89
2022/08/11 15:46:20;;;;;;;1047.45;963.25;;;24.40;99.90;;;;;;4926762;29;20402;-86
2022/08/11 15:48:56;;;;;;;1055.85;974.55;;;24.40;99.90;;;;;;4927276;29;20410;-89
2022/08/11 15:51:42;;;;;;;1119.18;999.90;;;24.30;99.90;;;;;;4937571;28;20451;-88
2022/08/11 15:54:14;;;;;;;1193.68;999.90;;;24.20;99.90;;;;;;4936153;28;20933;-88
2022/08/11 15:56:47;;;;;;;1132.68;999.90;;;24.00;99.90;;;;;;4934235;29;20465;-89
2022/08/11 16:05:12;;;;;;;1129.45;999.90;;;23.70;99.90;;;;;;4937554;28;20978;-85
2022/08/11 16:08:01;;;;;;;1192.95;999.90;;;23.60;99.90;;;;;;4928595;29;20936;-86
2022/08/11 16:10:30;;;;;;;1521.20;999.90;;;23.50;99.90;;;;;;4924906;29;20418;-87
2022/08/11 16:18:39;;;;;;;1999.90;999.90;;;23.30;99.90;;;;;;4930543;28;20433;-87
2022/08/11 16:21:10;;;;;;;1999.90;999.90;;;23.30;99.90;;;;;;4933423;29;20410;-87
2022/08/11 16:23:59;;;;;;;1999.90;999.90;;;23.20;99.90;;;;;;4924296;29;20410;-87
2022/08/11 16:26:30;;;;;;;1999.90;999.90;;;23.10;99.90;;;;;;4920495;29;20785;-87
2022/08/11 16:29:20;;;;;;;1999.90;999.90;;;23.10;99.90;;;;;;4939384;28;20420;-87
2022/08/11 16:40:15;;;;;;;1999.90;999.90;;;22.70;99.90;;;;;;4919462;29;20407;-88
2022/08/11 16:48:29;;;;;;;1999.90;999.90;;;22.40;99.90;;;;;;4927222;29;20504;-87
2022/08/11 16:51:09;;;;;;;1999.90;999.90;;;22.30;99.90;;;;;;4932884;29;20441;-86
2022/08/11 16:53:39;;;;;;;1999.90;999.90;;;22.30;99.90;;;;;;4931895;29;20776;-87
2022/08/11 16:56:33;;;;;;;1999.90;999.90;;;22.20;99.90;;;;;;4936960;28;20419;-86
2022/08/11 16:59:15;;;;;;;1999.90;999.90;;;22.10;99.90;;;;;;4931716;29;20411;-87
2022/08/11 17:01:51;;;;;;;1999.90;999.90;;;22.10;99.90;;;;;;4940781;28;20459;-86
2022/08/11 17:13:47;;;;;;;1999.90;999.90;;;21.80;99.90;;;;;;4944973;28;20411;-86
2022/08/11 17:16:24;;;;;;;1999.90;999.90;;;21.70;99.90;;;;;;4934506;28;20820;-86
2022/08/11 17:19:04;;;;;;;1999.90;999.90;;;21.60;99.90;;;;;;4925872;29;20412;-86
2022/08/11 17:24:39;;;;;;;880.22;816.97;;;21.50;99.90;;;;;;4936822;28;20416;-86
2022/08/11 17:27:08;;;;;;;1398.57;999.90;;;21.50;99.90;;;;;;4938941;28;20475;-87
2022/08/11 17:29:43;;;;;;;1705.50;999.90;;;21.40;99.90;;;;;;4924083;29;22161;-86
2022/08/11 17:35:39;;;;;;;1999.90;999.90;;;21.30;99.90;;;;;;4931740;29;20467;-87
2022/08/11 17:38:17;;;;;;;6.55;1.60;;;21.30;99.90;;;;;;4939215;29;20918;-86
2022/08/11 17:49:36;;;;;;;5.70;1.60;;;21.00;99.90;;;;;;4937984;29;20394;-85
2022/08/11 18:01:01;;;;;;;6.90;1.75;;;20.80;99.90;;;;;;4929510;29;20897;-86
2022/08/11 18:03:40;;;;;;;4.85;1.40;;;20.70;99.90;;;;;;4929509;29;20419;-86
2022/08/11 18:06:24;;;;;;;5.30;1.47;;;20.60;99.90;;;;;;4924197;29;20423;-87
